• Join FlightAware (Why Join?)
  • Login
  • US Flag 
06:43AM EDT


 

Airport Tracker/Info


-or-


 

Live Flight TrackerFlight Track Log ✈ CNS117 ✈ 19-Jul-2013 ✈ KPSM - KPSM

Flight Track Log - Related Links

Times and Time Zones

All times are in EDT time to prevent confusion due to time zone crossing. See the CNS117 flight status page for this flight to view local times or setup timezone preferences in your user account.

Time Position Orientation Groundspeed Altitude Reporting Facility
EDT Latitude Longitude Course Direction KTS MPH feet Rate Location/Type
08:46AM 43.1000 -70.8333 340° North 94 108 900  Level KA90
08:47AM 43.1333 -70.8500 340° North 133 153 2,900 1,680 Climbing KA90
08:49AM 43.2083 -70.8506 360° North 138 159 6,600 1,560 Climbing Boston Center
08:50AM 43.2411 -70.8128 40° Northeast 148 170 8,100 1,560 Climbing Boston Center
08:51AM 43.2822 -70.7658 40° Northeast 158 182 10,100 1,740 Climbing Boston Center
08:52AM 43.3150 -70.7250 42° Northeast 163 188 11,600 1,500 Climbing Boston Center
08:53AM 43.3539 -70.6811 39° Northeast 163 188 13,200 1,500 Climbing Boston Center
08:54AM 43.3867 -70.6403 42° Northeast 163 188 14,600 1,380 Climbing Boston Center
08:55AM 43.4256 -70.5961 40° Northeast 163 188 16,000 1,200 Climbing Boston Center
08:56AM 43.4622 -70.5550 39° Northeast 169 194 17,100 1,140 Climbing Boston Center
08:57AM 43.5031 -70.5050 42° Northeast 175 201 18,300 1,020 Climbing Boston Center
08:58AM 43.5419 -70.4581 41° Northeast 188 216 19,200 960 Climbing Boston Center
08:59AM 43.5828 -70.4081 42° Northeast 193 222 20,300 1,020 Climbing Boston Center
09:00AM 43.6236 -70.3606 40° Northeast 193 222 21,300 960 Climbing Boston Center
09:01AM 43.6683 -70.3075 41° Northeast 188 216 22,300 900 Climbing Boston Center
09:02AM 43.7053 -70.2631 41° Northeast 188 216 23,200 840 Climbing Boston Center
09:03AM 43.7497 -70.2039 44° Northeast 188 216 24,000 720 Climbing Boston Center
09:04AM 43.7928 -70.1592 37° Northeast 199 229 24,700 600 Climbing Boston Center
09:06AM 43.8417 -70.0997 41° Northeast 204 235 25,400 600 Climbing Boston Center
09:07AM 43.8883 -70.0461 40° Northeast 204 235 26,100 660 Climbing Boston Center
09:08AM 43.9311 -69.9953 41° Northeast 199 229 26,800 600 Climbing Boston Center
09:09AM 43.9736 -69.9417 42° Northeast 199 229 27,400 540 Climbing Boston Center
09:10AM 44.0183 -69.8908 39° Northeast 204 235 27,900 480 Climbing Boston Center
09:11AM 44.0631 -69.8369 41° Northeast 204 235 28,400 480 Climbing Boston Center
09:12AM 44.1075 -69.7800 43° Northeast 204 235 28,900 300 Climbing Boston Center
09:13AM 44.1561 -69.7200 42° Northeast 210 242 29,000  Climbing Boston Center
09:14AM 44.2069 -69.6597 40° Northeast 223 257 29,000  Level Boston Center
09:15AM 44.2575 -69.5992 41° Northeast 229 264 29,000  Level Boston Center
09:16AM 44.2994 -69.5219 53° Northeast 234 269 29,000  Level Boston Center
09:17AM 44.2519 -69.4633 139° Southeast 195 224 29,000  Level Boston Center
09:18AM 44.2053 -69.5061 213° Southwest 116 133 29,000  Level Boston Center
09:19AM 44.1647 -69.5544 221° Southwest 151 174 29,000  Level Boston Center
09:20AM 44.1222 -69.6058 221° Southwest 184 212 29,000  Level Boston Center
09:21AM 44.0817 -69.6511 219° Southwest 190 219 29,000  Level Boston Center
09:22AM 44.0411 -69.7019 222° Southwest 201 231 29,000  Level Boston Center
09:23AM 44.0006 -69.7500 220° Southwest 201 231 29,000  Level Boston Center
09:24AM 43.9581 -69.7981 219° Southwest 201 231 29,000  Level Boston Center
09:25AM 43.9236 -69.8400 221° Southwest 190 219 29,000  Level Boston Center
09:26AM 43.8869 -69.8819 220° Southwest 185 213 29,000  Level Boston Center
09:27AM 43.8525 -69.9267 223° Southwest 179 206 29,000  Level Boston Center
09:28AM 43.8158 -69.9683 219° Southwest 179 206 29,000  Level Boston Center
09:29AM 43.7792 -70.0103 220° Southwest 179 206 29,000  Level Boston Center
09:30AM 43.7447 -70.0517 221° Southwest 179 206 29,000  Level Boston Center
09:31AM 43.7081 -70.0936 220° Southwest 179 206 29,000  Level Boston Center
09:32AM 43.6733 -70.1322 219° Southwest 179 206 29,000  Level Boston Center
09:33AM 43.6408 -70.1736 223° Southwest 174 200 29,000  Level Boston Center
09:34AM 43.6042 -70.2181 221° Southwest 174 200 29,000  Level Boston Center
09:35AM 43.5675 -70.2594 219° Southwest 174 200 29,000  Level Boston Center
09:36AM 43.5308 -70.3036 221° Southwest 174 200 29,000  Level Boston Center
09:37AM 43.4942 -70.3450 219° Southwest 179 206 29,000  Level Boston Center
09:38AM 43.4575 -70.3892 221° Southwest 179 206 29,000  Level Boston Center
09:39AM 43.4769 -70.4286 304° West 142 163 29,000  Level Boston Center
09:40AM 43.5269 -70.4414 350° North 107 123 29,000  Level Boston Center
09:41AM 43.5794 -70.4511 352° North 152 175 29,000  Level Boston Center
09:42AM 43.6269 -70.4294 18° North 165 190 29,000  Level Boston Center
09:43AM 43.5944 -70.3644 125° Southeast 114 131 29,000 -720 Level Boston Center
09:44AM 43.5453 -70.4092 213° Southwest 94 108 27,600 -1,680 Descending Boston Center
09:45AM 43.4942 -70.4594 216° Southwest 166 191 25,700 -1,800 Descending Boston Center
09:46AM 43.4428 -70.5042 212° Southwest 208 239 24,100 -1,740 Descending Boston Center
09:47AM 43.3914 -70.5486 212° Southwest 219 252 22,300 -1,920 Descending Boston Center
09:48AM 43.3400 -70.5931 212° Southwest 224 258 20,300 -2,160 Descending Boston Center
09:49AM 43.3078 -70.6653 239° Southwest 213 245 18,000 -2,400 Descending Boston Center
09:50AM 43.2922 -70.7314 252° West 208 239 15,500 -2,580 Descending Boston Center
09:51AM 43.2683 -70.8119 248° West 208 239 12,900 -2,400 Descending Boston Center
09:52AM 43.2272 -70.8500 214° Southwest 202 232 10,700 -2,400 Descending Boston Center
09:52AM 43.1833 -70.8833 209° Southwest 210 242 8,500 -1,560 Descending KA90
09:53AM 43.1333 -70.9000 194° South 167 192 8,000 -780 Descending KA90
09:54AM 43.1000 -70.8667 144° Southeast 167 192 7,100 -1,440 Descending KA90
09:55AM 43.0500 -70.8500 166° South 161 185 5,100 -1,500 Descending KA90
09:56AM 43.0167 -70.8167 144° Southeast 159 183 4,100 -780 Descending KA90
09:57AM 42.9833 -70.7833 144° Southeast 149 171 3,700 -1,080 Descending KA90
09:58AM 43.0000 -70.7500 56° Northeast 150 173 2,000 -1,320 Descending KA90
09:59AM 43.0167 -70.7667 324° Northwest 111 128 1,300 -720 Descending KA90
10:00AM 43.0500 -70.8000 324° Northwest 102 117 600 -660 Descending KA90
10:03AM 43.0779 -70.8233 40° Northeast  Level Estimated